»·PEaware :: SWA575 KLAS-KSNA

SWA575 :: KLAS-KSNA

FLIGHT INFORMATION

Flight Status: Arrived
Operator:
Southwest Airlines
More flights by this operator :: More flights under this callsign
Pilot: Nehseem A. (13724)
Aircraft: BOEING 737-200
(B732)
More flights by this aircraft type
Origin: KLAS McCarran Intl
United States
Destination: KSNA John Wayne-Orange Co
United States
More flights between these airports :: More routes between these airports
Route: +MCCRN5 HEC KAYOH7
File this flight plan on PilotEdge
Remarks:
Altitude:
(Current/Filed)
26,000ft
Speed:
(Current/Filed)
420kts
Departed: 02-Dec-19 05:54 PM
Arrived: 02-Dec-19 06:51 PM
Distance/Time
Traveled:
197nm/0:57
Distance/Time
To Go:
Arrived

Flight Plot

Page will automatically refresh every two minutes.

Flight plan parsing failed; only flown route is shown


Map Options




Map Legend


Flown Route
Filed Route
Departure Airport
Arrival Airport
Navaid (VOR, NDB)
Fix

Horizontal Profiles

Position Reports

Time Latitude Longitude Heading Altitude Ground
Speed
02-Dec-19 17:05 36.079932 -115.135291 352 2190ft 0kts
02-Dec-19 17:06 36.079932 -115.135291 352 2190ft 0kts
02-Dec-19 17:07 36.079932 -115.135291 352 2190ft 0kts
02-Dec-19 17:08 36.079932 -115.135291 352 2190ft 0kts
02-Dec-19 17:09 36.079932 -115.135291 352 2190ft 0kts
02-Dec-19 17:10 36.079932 -115.135291 352 2190ft 0kts
02-Dec-19 17:11 36.079932 -115.135291 352 2190ft 0kts
02-Dec-19 17:12 36.079932 -115.135291 352 2190ft 0kts
02-Dec-19 17:13 36.079932 -115.135291 352 2190ft 0kts
02-Dec-19 17:14 36.079932 -115.135291 352 2190ft 0kts
02-Dec-19 17:15 36.079932 -115.135291 352 2190ft 0kts
02-Dec-19 17:16 36.079932 -115.135291 352 2190ft 0kts
02-Dec-19 17:17 36.079932 -115.135291 352 2190ft 0kts
02-Dec-19 17:18 36.079932 -115.135291 352 2190ft 0kts
02-Dec-19 17:19 36.079932 -115.135291 352 2190ft 0kts
02-Dec-19 17:20 36.079932 -115.135291 352 2190ft 0kts
02-Dec-19 17:21 36.079932 -115.135291 352 2190ft 0kts
02-Dec-19 17:22 36.079932 -115.135291 352 2190ft 0kts
02-Dec-19 17:23 36.079932 -115.135291 352 2190ft 0kts
02-Dec-19 17:24 36.079932 -115.135291 352 2190ft 0kts
02-Dec-19 17:25 36.079932 -115.135291 352 2190ft 0kts
02-Dec-19 17:26 36.079932 -115.135291 352 2190ft 0kts
02-Dec-19 17:27 36.079932 -115.135291 352 2190ft 0kts
02-Dec-19 17:28 36.079932 -115.135291 352 2190ft 0kts
02-Dec-19 17:29 36.079932 -115.135291 352 2190ft 0kts
02-Dec-19 17:30 36.079932 -115.135291 352 2190ft 0kts
02-Dec-19 17:31 36.079932 -115.135291 352 2190ft 0kts
02-Dec-19 17:32 36.079932 -115.135291 352 2190ft 0kts
02-Dec-19 17:33 36.079932 -115.135291 352 2190ft 0kts
02-Dec-19 17:34 36.079932 -115.135291 352 2190ft 0kts
02-Dec-19 17:35 36.079932 -115.135291 352 2190ft 0kts
02-Dec-19 17:36 36.079932 -115.135291 352 2190ft 0kts
02-Dec-19 17:37 36.079935 -115.135292 352 2190ft 0kts
02-Dec-19 17:38 36.079935 -115.135292 352 2190ft 0kts
02-Dec-19 17:39 36.079468 -115.135289 20 2190ft 2kts
02-Dec-19 17:40 36.079109 -115.135841 83 2190ft 2kts
02-Dec-19 17:41 36.079108 -115.135994 94 2190ft 0kts
02-Dec-19 17:42 36.079108 -115.135994 94 2190ft 0kts
02-Dec-19 17:43 36.079108 -115.135994 94 2190ft 0kts
02-Dec-19 17:44 36.079108 -115.135994 94 2190ft 0kts
02-Dec-19 17:45 36.079108 -115.135994 94 2190ft 0kts
02-Dec-19 17:46 36.079108 -115.135994 94 2190ft 0kts
02-Dec-19 17:47 36.079030 -115.135882 144 2190ft 4kts
02-Dec-19 17:48 36.077544 -115.132347 89 2190ft 15kts
02-Dec-19 17:49 36.077548 -115.125193 91 2190ft 24kts
02-Dec-19 17:50 36.077487 -115.121560 118 2190ft 0kts
02-Dec-19 17:51 36.077471 -115.121524 120 2190ft 1kts
02-Dec-19 17:52 36.076437 -115.123126 268 2190ft 30kts
02-Dec-19 17:53 36.076186 -115.170539 271 2948ft 208kts
02-Dec-19 17:54 36.067853 -115.250821 236 6006ft 264kts
02-Dec-19 17:55 36.003503 -115.291095 196 7547ft 252kts
02-Dec-19 17:56 35.931300 -115.292114 186 9851ft 269kts
02-Dec-19 17:57 35.850858 -115.304394 193 12618ft 313kts
02-Dec-19 17:58 35.761841 -115.322237 192 15961ft 325kts
02-Dec-19 17:59 35.680579 -115.357475 215 19311ft 310kts
02-Dec-19 18:00 35.609194 -115.417076 218 21895ft 313kts
02-Dec-19 18:01 35.542009 -115.484620 223 24198ft 312kts
02-Dec-19 18:02 35.477225 -115.555691 227 26067ft 316kts
02-Dec-19 18:03 35.416500 -115.636690 231 26273ft 334kts
02-Dec-19 18:04 35.358744 -115.724937 232 26258ft 333kts
02-Dec-19 18:05 35.301729 -115.812239 231 26242ft 328kts
02-Dec-19 18:06 35.243246 -115.894815 229 26230ft 325kts
02-Dec-19 18:07 35.190877 -115.979729 234 26224ft 321kts
02-Dec-19 18:08 35.127445 -116.052646 220 26229ft 327kts
02-Dec-19 18:09 35.055125 -116.116275 221 26228ft 327kts
02-Dec-19 18:10 34.990915 -116.192444 231 26240ft 324kts
02-Dec-19 18:11 34.934730 -116.277924 230 26247ft 325kts
02-Dec-19 18:12 34.877347 -116.355826 228 26248ft 333kts
02-Dec-19 18:13 34.811734 -116.441990 229 26238ft 345kts
02-Dec-19 18:14 34.749344 -116.528052 229 25959ft 325kts
02-Dec-19 18:15 34.690843 -116.608668 229 24279ft 308kts
02-Dec-19 18:16 34.627518 -116.660731 215 23666ft 306kts
02-Dec-19 18:18 34.570405 -116.744010 231 22035ft 323kts
02-Dec-19 18:19 34.511414 -116.827121 227 19555ft 328kts
02-Dec-19 18:20 34.448411 -116.905470 225 17365ft 326kts
02-Dec-19 18:21 34.380339 -116.976385 217 15210ft 325kts
02-Dec-19 18:22 34.312186 -117.043570 222 13192ft 323kts
02-Dec-19 18:23 34.249982 -117.102774 204 12973ft 274kts
02-Dec-19 18:24 34.177677 -117.116857 188 13000ft 297kts
02-Dec-19 18:25 34.092081 -117.126659 188 12994ft 322kts
02-Dec-19 18:26 34.003660 -117.142588 192 12685ft 324kts
02-Dec-19 18:27 33.916210 -117.160734 190 11136ft 320kts
02-Dec-19 18:28 33.834906 -117.175001 190 10407ft 299kts
02-Dec-19 18:29 33.750413 -117.190310 197 8831ft 299kts
02-Dec-19 18:30 33.715910 -117.260477 286 8038ft 261kts
02-Dec-19 18:31 33.746860 -117.334961 296 8052ft 243kts
02-Dec-19 18:32 33.774744 -117.408815 271 8169ft 257kts
02-Dec-19 18:33 33.780489 -117.495763 273 7862ft 261kts
02-Dec-19 18:34 33.781251 -117.580493 268 7852ft 260kts
02-Dec-19 18:35 33.781487 -117.662573 263 7532ft 267kts
02-Dec-19 18:36 33.830203 -117.708078 15 6888ft 257kts
02-Dec-19 18:36 33.887559 -117.684164 356 6438ft 269kts
02-Dec-19 18:38 33.912994 -117.760908 229 4959ft 250kts
02-Dec-19 18:39 33.856147 -117.771703 167 4266ft 211kts
02-Dec-19 18:39 33.813111 -117.780610 209 3276ft 204kts
02-Dec-19 18:40 33.792486 -117.827840 296 3293ft 197kts
02-Dec-19 18:42 33.849687 -117.840742 343 2985ft 204kts
02-Dec-19 18:43 33.902355 -117.853435 30 3040ft 195kts
02-Dec-19 18:43 33.899080 -117.811750 148 2979ft 185kts
02-Dec-19 18:44 33.855723 -117.806900 198 2905ft 165kts
02-Dec-19 18:45 33.814780 -117.820496 194 2930ft 148kts
02-Dec-19 18:46 33.780472 -117.831685 201 2090ft 133kts
02-Dec-19 18:47 33.746896 -117.841739 197 1522ft 128kts
02-Dec-19 18:48 33.714770 -117.852740 192 863ft 128kts
02-Dec-19 18:49 33.682615 -117.864552 206 122ft 125kts
02-Dec-19 18:51 33.669074 -117.871476 132 65ft 6kts
02-Dec-19 18:51 33.668939 -117.871174 82 65ft 4kts

Navigation Log

Ident Type
Flight plan parsing failed, navigation log unavailable